»·PEaware :: SWA1103 KPHX-KABQ

SWA1103 :: KPHX-KABQ

FLIGHT INFORMATION

Flight Status: Arrived
Operator:
Southwest Airlines
More flights by this operator :: More flights under this callsign
Pilot: Andrew W. (18324)
Aircraft: BOEING 737-800
(B738)
More flights by this aircraft type
Origin: KPHX Phoenix Sky Harbor Intl
United States
Destination: KABQ Albuquerque Intl Sunport
United States
More flights between these airports :: More routes between these airports
Route: +KPHX FORPE1 SJN CABNO KRKEE3 KABQ
File this flight plan on PilotEdge
Remarks:
Altitude:
(Current/Filed)
35,000ft
Speed:
(Current/Filed)
424kts
Departed: 06-Dec-18 10:17 PM
Arrived: 06-Dec-18 11:13 PM
Distance/Time
Traveled:
285nm/0:55
Distance/Time
To Go:
Arrived

Flight Plot

Page will automatically refresh every two minutes.

Flight plan parsing failed; only flown route is shown


Map Options




Map Legend


Flown Route
Filed Route
Departure Airport
Arrival Airport
Navaid (VOR, NDB)
Fix

Horizontal Profiles

Position Reports

Time Latitude Longitude Heading Altitude Ground
Speed
06-Dec-18 21:54 33.433640 -111.999784 34 1117ft 0kts
06-Dec-18 21:55 33.433640 -111.999784 34 1117ft 0kts
06-Dec-18 22:00 33.433640 -111.999784 34 1117ft 0kts
06-Dec-18 22:01 33.433640 -111.999784 34 1117ft 0kts
06-Dec-18 22:02 33.433640 -111.999784 34 1117ft 0kts
06-Dec-18 22:03 33.433640 -111.999784 34 1117ft 0kts
06-Dec-18 22:04 33.433640 -111.999784 34 1117ft 0kts
06-Dec-18 22:05 33.433640 -111.999784 34 1117ft 0kts
06-Dec-18 22:06 33.433640 -111.999784 34 1117ft 0kts
06-Dec-18 22:07 33.433640 -111.999784 34 1117ft 0kts
06-Dec-18 22:08 33.433640 -111.999784 34 1117ft 0kts
06-Dec-18 22:09 33.433640 -111.999784 34 1117ft 0kts
06-Dec-18 22:10 33.433642 -111.999782 34 1117ft 0kts
06-Dec-18 22:11 33.433247 -112.000171 91 1117ft 1kts
06-Dec-18 22:12 33.433252 -112.000226 93 1116ft 0kts
06-Dec-18 22:13 33.433252 -112.000226 93 1116ft 0kts
06-Dec-18 22:14 33.432875 -112.000236 251 1117ft 0kts
06-Dec-18 22:15 33.432875 -112.000237 251 1117ft 0kts
06-Dec-18 22:16 33.432884 -112.013979 270 1116ft 50kts
06-Dec-18 22:17 33.432719 -112.026675 225 1116ft 0kts
06-Dec-18 22:18 33.432715 -112.026680 224 1116ft 0kts
06-Dec-18 22:19 33.431094 -112.026607 95 1116ft 0kts
06-Dec-18 22:20 33.431090 -112.026555 96 1116ft 3kts
06-Dec-18 22:21 33.431064 -112.009284 90 1218ft 167kts
06-Dec-18 22:22 33.433233 -111.939968 86 3361ft 259kts
06-Dec-18 22:23 33.444916 -111.853592 64 6590ft 274kts
06-Dec-18 22:24 33.479246 -111.770650 63 9822ft 287kts
06-Dec-18 22:25 33.517753 -111.678245 63 12277ft 323kts
06-Dec-18 22:26 33.558533 -111.580114 63 15218ft 338kts
06-Dec-18 22:27 33.601142 -111.477282 63 18055ft 352kts
06-Dec-18 22:28 33.645330 -111.370311 63 20646ft 367kts
06-Dec-18 22:29 33.691163 -111.258724 65 22994ft 380kts
06-Dec-18 22:30 33.734360 -111.131269 69 21124ft 417kts
06-Dec-18 22:31 33.776955 -111.017348 66 22908ft 379kts
06-Dec-18 22:32 33.820043 -110.896009 66 22900ft 396kts
06-Dec-18 22:33 33.863055 -110.774360 66 22900ft 397kts
06-Dec-18 22:34 33.905922 -110.652668 66 23275ft 401kts
06-Dec-18 22:35 33.948946 -110.530060 66 23862ft 396kts
06-Dec-18 22:36 33.991215 -110.409145 66 26105ft 390kts
06-Dec-18 22:37 34.032575 -110.290387 67 28273ft 379kts
06-Dec-18 22:38 34.072531 -110.175237 67 30191ft 368kts
06-Dec-18 22:39 34.111234 -110.063286 67 31954ft 356kts
06-Dec-18 22:40 34.148292 -109.955724 67 33698ft 339kts
06-Dec-18 22:41 34.183411 -109.853446 67 34992ft 333kts
06-Dec-18 22:42 34.220584 -109.744822 67 35010ft 368kts
06-Dec-18 22:43 34.261289 -109.625445 67 35008ft 402kts
06-Dec-18 22:44 34.305344 -109.495728 67 35006ft 432kts
06-Dec-18 22:45 34.350880 -109.361081 67 35000ft 432kts
06-Dec-18 22:46 34.395857 -109.227516 67 35000ft 432kts
06-Dec-18 22:47 34.431445 -109.088974 81 35001ft 432kts
06-Dec-18 22:48 34.449302 -108.945247 81 34999ft 432kts
06-Dec-18 22:49 34.467224 -108.801622 81 35000ft 432kts
06-Dec-18 22:50 34.484964 -108.658372 81 34387ft 416kts
06-Dec-18 22:51 34.501119 -108.526757 81 33330ft 377kts
06-Dec-18 22:52 34.520602 -108.407650 77 32287ft 347kts
06-Dec-18 22:53 34.540146 -108.294246 78 30106ft 369kts
06-Dec-18 22:54 34.561126 -108.171287 78 27997ft 361kts
06-Dec-18 22:55 34.581164 -108.053030 78 26425ft 358kts
06-Dec-18 22:56 34.601273 -107.933580 78 24516ft 392kts
06-Dec-18 22:58 34.623764 -107.807142 69 22494ft 375kts
06-Dec-18 22:59 34.670124 -107.695960 61 20509ft 364kts
06-Dec-18 23:00 34.716344 -107.588972 62 18509ft 353kts
06-Dec-18 23:01 34.761161 -107.484635 62 16503ft 343kts
06-Dec-18 23:02 34.804368 -107.383702 62 14507ft 333kts
06-Dec-18 23:03 34.846318 -107.285395 62 13236ft 326kts
06-Dec-18 23:04 34.886990 -107.188087 59 11242ft 321kts
06-Dec-18 23:05 34.946525 -107.117784 47 10768ft 273kts
06-Dec-18 23:06 34.995857 -107.052292 47 10165ft 272kts
06-Dec-18 23:07 35.043430 -106.976393 72 8199ft 292kts
06-Dec-18 23:08 35.048833 -106.877872 88 6969ft 276kts
06-Dec-18 23:09 35.046874 -106.795999 94 6980ft 231kts
06-Dec-18 23:10 35.042472 -106.719220 90 7011ft 202kts
06-Dec-18 23:11 35.044884 -106.661349 90 5970ft 150kts
06-Dec-18 23:12 35.044319 -106.612146 89 5317ft 111kts
06-Dec-18 23:13 35.046308 -106.604023 316 5316ft 17kts
06-Dec-18 23:14 35.046542 -106.609624 270 5316ft 17kts
06-Dec-18 23:15 35.046979 -106.613948 310 5316ft 0kts
06-Dec-18 23:16 35.046979 -106.613948 310 5316ft 0kts
06-Dec-18 23:16 35.046979 -106.613948 310 5316ft 0kts
06-Dec-18 23:18 35.046979 -106.613948 310 5316ft 0kts
06-Dec-18 23:19 35.046979 -106.613948 310 5316ft 0kts
06-Dec-18 23:19 35.046979 -106.613948 310 5316ft 0kts
06-Dec-18 23:20 35.042809 -106.701650 86 6757ft 189kts
06-Dec-18 23:22 35.044371 -106.638930 89 5457ft 150kts
06-Dec-18 23:22 35.044305 -106.609483 90 5317ft 93kts
06-Dec-18 23:24 35.044392 -106.602743 45 5316ft 15kts
06-Dec-18 23:24 35.046979 -106.613948 310 5316ft 0kts
06-Dec-18 23:25 35.046979 -106.613948 310 5316ft 0kts
06-Dec-18 23:26 35.046979 -106.613948 310 5316ft 0kts

Navigation Log

Ident Type
Flight plan parsing failed, navigation log unavailable